createdAt,value
2023-02-02T00:02:23.916Z,100.00
2023-02-02T00:04:51.533Z,100.00
2023-02-02T00:07:19.102Z,100.00
2023-02-02T00:09:46.755Z,100.00
2023-02-02T00:12:14.337Z,100.00
2023-02-02T00:14:41.960Z,100.00
2023-02-02T00:17:10.969Z,100.00
2023-02-02T00:19:38.595Z,100.00
2023-02-02T00:22:06.233Z,100.00
2023-02-02T00:24:33.916Z,100.00
2023-02-02T00:27:01.605Z,100.00
2023-02-02T00:29:30.076Z,100.00
2023-02-02T00:31:57.669Z,100.00
2023-02-02T00:34:26.694Z,100.00
2023-02-02T00:36:54.316Z,100.00
2023-02-02T00:39:25.394Z,100.00
2023-02-02T00:41:53.014Z,100.00
2023-02-02T00:44:38.365Z,100.00
2023-02-02T00:47:06.139Z,100.00
2023-02-02T00:49:35.219Z,100.00
2023-02-02T00:52:02.926Z,100.00
2023-02-02T00:54:30.724Z,100.00
2023-02-02T00:56:58.402Z,100.00
2023-02-02T00:59:26.065Z,100.00
2023-02-02T01:01:53.750Z,100.00
2023-02-02T01:04:21.497Z,100.00
2023-02-02T01:06:50.507Z,100.00
2023-02-02T01:09:18.097Z,100.00
2023-02-02T01:11:45.771Z,100.00
2023-02-02T01:14:13.422Z,100.00
2023-02-02T01:16:41.063Z,100.00
2023-02-02T01:19:09.156Z,100.00
2023-02-02T01:21:36.737Z,100.00
2023-02-02T01:24:05.913Z,100.00
2023-02-02T01:26:33.494Z,100.00
2023-02-02T01:29:01.092Z,100.00
2023-02-02T01:31:28.793Z,100.00
2023-02-02T01:33:56.534Z,100.00
2023-02-02T01:36:24.527Z,100.00
2023-02-02T01:38:52.317Z,100.00
2023-02-02T01:41:22.320Z,100.00
2023-02-02T01:43:54.973Z,100.00
2023-02-02T01:46:23.489Z,100.00
2023-02-02T01:48:52.423Z,100.00
2023-02-02T01:51:21.137Z,100.00
2023-02-02T01:53:49.239Z,100.00
2023-02-02T01:56:18.716Z,100.00
2023-02-02T01:58:47.750Z,100.00
2023-02-02T02:01:15.390Z,100.00
2023-02-02T02:03:43.299Z,100.00
2023-02-02T02:06:11.815Z,100.00
2023-02-02T02:08:40.576Z,100.00
2023-02-02T02:11:08.331Z,100.00
2023-02-02T02:13:54.764Z,100.00
2023-02-02T02:16:25.719Z,100.00
2023-02-02T02:19:05.021Z,100.00
2023-02-02T02:21:56.119Z,100.00
2023-02-02T02:25:00.359Z,100.00
2023-02-02T02:27:39.062Z,100.00
2023-02-02T02:30:09.715Z,100.00
2023-02-02T02:32:40.736Z,100.00
2023-02-02T02:35:10.984Z,100.00
2023-02-02T02:37:39.876Z,100.00
2023-02-02T02:40:09.668Z,100.00
2023-02-02T02:42:37.795Z,100.00
2023-02-02T02:45:06.568Z,100.00
2023-02-02T02:47:34.593Z,100.00
2023-02-02T02:50:04.777Z,100.00
2023-02-02T02:52:32.559Z,100.00
2023-02-02T02:55:00.254Z,100.00
2023-02-02T02:57:37.072Z,100.00
2023-02-02T03:00:06.977Z,100.00
2023-02-02T03:02:37.261Z,100.00
2023-02-02T03:05:09.154Z,100.00
2023-02-02T03:07:38.338Z,100.00
2023-02-02T03:10:06.488Z,100.00
2023-02-02T03:12:34.159Z,100.00
2023-02-02T03:15:05.466Z,100.00
2023-02-02T03:17:33.256Z,100.00
2023-02-02T03:20:00.966Z,100.00
2023-02-02T03:22:30.024Z,100.00
2023-02-02T03:24:59.510Z,100.00
2023-02-02T03:27:27.285Z,100.00
2023-02-02T03:29:54.940Z,100.00
2023-02-02T03:32:22.685Z,100.00
2023-02-02T03:34:50.401Z,100.00
2023-02-02T03:37:17.958Z,100.00
2023-02-02T03:39:46.953Z,100.00
2023-02-02T03:42:14.575Z,100.00
2023-02-02T03:44:42.183Z,100.00
2023-02-02T03:47:09.940Z,100.00
2023-02-02T03:49:37.587Z,100.00
2023-02-02T03:52:05.369Z,100.00
2023-02-02T03:54:32.941Z,100.00
2023-02-02T03:57:01.926Z,100.00
2023-02-02T03:59:29.566Z,100.00
2023-02-02T04:01:57.306Z,100.00
2023-02-02T04:04:25.074Z,100.00
2023-02-02T04:06:52.777Z,100.00
2023-02-02T04:09:20.430Z,100.00
2023-02-02T04:11:48.098Z,100.00
2023-02-02T04:14:17.183Z,100.00
2023-02-02T04:16:46.087Z,100.00
2023-02-02T04:19:14.079Z,100.00
2023-02-02T04:21:41.939Z,100.00
2023-02-02T04:24:11.698Z,100.00
2023-02-02T04:26:39.374Z,100.00
2023-02-02T04:29:07.036Z,100.00
2023-02-02T04:31:36.014Z,100.00
2023-02-02T04:34:03.832Z,100.00
2023-02-02T04:36:31.536Z,100.00
2023-02-02T04:38:59.262Z,100.00
2023-02-02T04:41:27.138Z,100.00
2023-02-02T04:43:56.399Z,100.00
2023-02-02T04:46:24.040Z,100.00
2023-02-02T04:48:53.104Z,100.00
2023-02-02T04:51:20.756Z,100.00
2023-02-02T04:53:48.546Z,100.00
2023-02-02T04:56:17.194Z,100.00
2023-02-02T04:58:45.060Z,100.00
2023-02-02T05:01:15.975Z,100.00
2023-02-02T05:03:43.822Z,100.00
2023-02-02T05:06:15.542Z,100.00
2023-02-02T05:08:43.771Z,100.00
2023-02-02T05:11:11.828Z,100.00
2023-02-02T05:13:39.482Z,100.00
2023-02-02T05:16:07.650Z,100.00
2023-02-02T05:18:35.317Z,100.00
2023-02-02T05:21:03.267Z,100.00
2023-02-02T05:23:32.397Z,100.00
2023-02-02T05:26:00.161Z,100.00
2023-02-02T05:28:27.868Z,100.00
2023-02-02T05:30:55.559Z,100.00
2023-02-02T05:33:23.177Z,100.00
2023-02-02T05:35:51.680Z,100.00
2023-02-02T05:38:19.334Z,100.00
2023-02-02T05:40:48.340Z,100.00
2023-02-02T05:43:16.005Z,100.00
2023-02-02T05:45:43.621Z,100.00
2023-02-02T05:48:11.300Z,100.00
2023-02-02T05:50:38.909Z,100.00
2023-02-02T05:53:07.318Z,100.00
2023-02-02T05:55:34.984Z,100.00
2023-02-02T05:58:04.044Z,100.00
2023-02-02T06:00:31.712Z,100.00
2023-02-02T06:02:59.335Z,100.00
2023-02-02T06:05:27.180Z,100.00
2023-02-02T06:07:54.923Z,100.00
2023-02-02T06:10:22.596Z,100.00
2023-02-02T06:12:50.311Z,100.00
2023-02-02T06:15:19.301Z,100.00
2023-02-02T06:17:47.005Z,100.00
2023-02-02T06:20:14.681Z,100.00
2023-02-02T06:22:43.857Z,100.00
2023-02-02T06:25:11.529Z,100.00
2023-02-02T06:27:39.181Z,100.00
2023-02-02T06:30:07.564Z,100.00
2023-02-02T06:32:36.565Z,100.00
2023-02-02T06:35:04.277Z,100.00
2023-02-02T06:37:31.889Z,100.00
2023-02-02T06:39:59.529Z,100.00
2023-02-02T06:42:27.174Z,100.00
2023-02-02T06:44:54.836Z,100.00
2023-02-02T06:47:22.506Z,100.00
2023-02-02T06:49:51.572Z,100.00
2023-02-02T06:52:19.235Z,100.00
2023-02-02T06:54:46.881Z,100.00
2023-02-02T06:57:14.626Z,100.00
2023-02-02T06:59:42.417Z,100.00
2023-02-02T07:02:11.114Z,100.00
2023-02-02T07:04:38.918Z,100.00
2023-02-02T07:07:07.981Z,100.00
2023-02-02T07:09:35.612Z,92.02
2023-02-02T07:12:03.251Z,100.00
2023-02-02T07:14:30.906Z,100.00
2023-02-02T07:16:58.672Z,100.00
2023-02-02T07:19:26.355Z,97.99
2023-02-02T07:21:54.039Z,88.48
2023-02-02T07:24:23.051Z,100.00
2023-02-02T07:26:50.714Z,90.50
2023-02-02T07:29:18.351Z,100.00
2023-02-02T07:31:46.190Z,100.00
2023-02-02T07:34:14.098Z,100.00
2023-02-02T07:36:41.793Z,100.00
2023-02-02T07:39:09.478Z,100.00
2023-02-02T07:41:38.443Z,100.00
2023-02-02T07:44:16.013Z,100.00
2023-02-02T07:46:43.811Z,100.00
2023-02-02T07:49:12.690Z,100.00
2023-02-02T07:51:44.320Z,100.00
2023-02-02T07:54:14.053Z,99.66
2023-02-02T07:56:43.135Z,100.00
2023-02-02T07:59:10.916Z,100.00
2023-02-02T08:01:38.649Z,100.00
2023-02-02T08:04:06.402Z,100.00
2023-02-02T08:06:34.596Z,100.00
2023-02-02T08:09:02.553Z,100.00
2023-02-02T08:11:30.258Z,100.00
2023-02-02T08:14:00.119Z,100.00
2023-02-02T08:16:28.130Z,100.00
2023-02-02T08:18:55.839Z,100.00
2023-02-02T08:21:23.595Z,100.00
2023-02-02T08:23:52.531Z,100.00
2023-02-02T08:26:20.945Z,94.30
2023-02-02T08:28:52.200Z,100.00
2023-02-02T08:31:22.537Z,89.42
2023-02-02T08:33:50.282Z,100.00
2023-02-02T08:36:18.566Z,100.00
2023-02-02T08:38:46.304Z,100.00
2023-02-02T08:41:15.537Z,100.00
2023-02-02T08:43:43.314Z,100.00
2023-02-02T08:46:11.674Z,93.93
2023-02-02T08:48:40.692Z,100.00
2023-02-02T08:51:08.519Z,97.40
2023-02-02T08:53:36.454Z,100.00
2023-02-02T08:56:05.171Z,85.30
2023-02-02T08:58:33.824Z,100.00
2023-02-02T09:01:05.319Z,100.00
2023-02-02T09:03:33.118Z,92.42
2023-02-02T09:06:06.283Z,100.00
2023-02-02T09:08:34.502Z,86.22
2023-02-02T09:11:06.303Z,89.69
2023-02-02T09:13:33.946Z,100.00
2023-02-02T09:16:04.685Z,69.47
2023-02-02T09:18:32.399Z,86.19
2023-02-02T09:21:00.391Z,97.07
2023-02-02T09:23:30.383Z,89.44
2023-02-02T09:25:58.317Z,92.65
2023-02-02T09:28:26.043Z,100.00
2023-02-02T09:30:53.796Z,94.34
2023-02-02T09:33:24.172Z,96.85
2023-02-02T09:35:51.868Z,92.89
2023-02-02T09:38:19.547Z,86.10
2023-02-02T09:40:48.526Z,84.91
2023-02-02T09:43:19.892Z,93.15
2023-02-02T09:45:49.087Z,99.34
2023-02-02T09:48:20.129Z,100.00
2023-02-02T09:50:48.387Z,89.57
2023-02-02T09:53:18.141Z,92.97
2023-02-02T09:55:46.394Z,81.77
2023-02-02T09:58:18.170Z,92.19
2023-02-02T10:00:46.655Z,93.77
2023-02-02T10:03:15.825Z,94.56
2023-02-02T10:05:45.629Z,87.79
2023-02-02T10:08:18.448Z,61.31
2023-02-02T10:10:53.533Z,73.71
2023-02-02T10:13:23.897Z,76.25
2023-02-02T10:15:52.556Z,78.58
2023-02-02T10:18:20.793Z,85.00
2023-02-02T10:20:49.128Z,93.84
2023-02-02T10:23:20.221Z,84.45
2023-02-02T10:25:49.959Z,77.57
2023-02-02T10:28:18.987Z,75.82
2023-02-02T10:30:48.654Z,87.80
2023-02-02T10:33:18.328Z,84.00
2023-02-02T10:35:46.672Z,70.55
2023-02-02T10:38:16.892Z,78.45
2023-02-02T10:40:46.534Z,70.54
2023-02-02T10:43:47.071Z,83.69
2023-02-02T10:46:17.047Z,65.82
2023-02-02T10:48:45.310Z,75.04
2023-02-02T10:51:13.997Z,58.39
2023-02-02T10:53:41.616Z,58.34
2023-02-02T10:56:11.729Z,61.95
2023-02-02T10:58:40.241Z,61.54
2023-02-02T11:01:11.289Z,68.62
2023-02-02T11:03:40.771Z,69.92
2023-02-02T11:06:40.313Z,62.49
2023-02-02T11:09:10.009Z,66.63
2023-02-02T11:11:39.515Z,64.40
2023-02-02T11:14:12.561Z,68.95
2023-02-02T11:16:43.691Z,65.58
2023-02-02T11:19:27.714Z,59.94
2023-02-02T11:21:56.374Z,61.56
2023-02-02T11:24:25.043Z,60.70
2023-02-02T11:26:54.205Z,56.84
2023-02-02T11:29:23.862Z,57.81
2023-02-02T11:31:52.108Z,55.04
2023-02-02T11:34:20.891Z,62.10
2023-02-02T11:37:03.413Z,57.86
2023-02-02T11:39:32.387Z,57.24
2023-02-02T11:42:01.198Z,63.01
2023-02-02T11:44:29.360Z,61.95
2023-02-02T11:46:57.663Z,64.36
2023-02-02T11:49:25.353Z,60.76
2023-02-02T11:51:59.865Z,58.48
2023-02-02T11:54:29.955Z,67.50
2023-02-02T11:56:59.738Z,61.02
2023-02-02T11:59:31.079Z,58.79
2023-02-02T12:02:17.468Z,66.31
2023-02-02T12:04:45.140Z,67.04
2023-02-02T12:07:19.117Z,70.30
2023-02-02T12:09:46.979Z,85.00
2023-02-02T12:12:19.709Z,89.92
2023-02-02T12:14:49.482Z,77.88
2023-02-02T12:17:20.288Z,73.00
2023-02-02T12:20:00.506Z,65.22
2023-02-02T12:22:32.232Z,88.76
2023-02-02T12:25:01.697Z,92.91
2023-02-02T12:27:33.836Z,100.00
2023-02-02T12:30:05.238Z,100.00
2023-02-02T12:32:42.709Z,100.00
2023-02-02T12:35:16.388Z,100.00
2023-02-02T12:37:47.949Z,100.00
2023-02-02T12:40:22.242Z,100.00
2023-02-02T12:42:53.638Z,100.00
2023-02-02T12:45:30.796Z,100.00
2023-02-02T12:48:03.112Z,100.00
2023-02-02T12:50:31.597Z,100.00
2023-02-02T12:53:14.119Z,100.00
2023-02-02T12:55:42.667Z,82.25
2023-02-02T12:58:13.348Z,78.68
2023-02-02T13:00:58.925Z,95.30
2023-02-02T13:03:29.144Z,82.33
2023-02-02T13:06:00.320Z,95.82
2023-02-02T13:08:28.688Z,75.57
2023-02-02T13:10:56.796Z,86.11
2023-02-02T13:13:26.670Z,100.00
2023-02-02T13:15:55.379Z,85.32
2023-02-02T13:18:24.770Z,68.15
2023-02-02T13:20:53.276Z,63.06
2023-02-02T13:23:21.683Z,64.23
2023-02-02T13:25:50.115Z,69.28
2023-02-02T13:28:19.452Z,68.47
2023-02-02T13:30:48.670Z,66.62
2023-02-02T13:33:17.216Z,66.63
2023-02-02T13:35:47.193Z,69.21
2023-02-02T13:38:15.982Z,60.62
2023-02-02T13:40:44.082Z,58.83
2023-02-02T13:43:21.083Z,61.68
2023-02-02T13:45:52.023Z,59.29
2023-02-02T13:48:24.325Z,59.69
2023-02-02T13:50:56.568Z,56.07
2023-02-02T13:53:31.449Z,61.60
2023-02-02T13:56:02.379Z,55.35
2023-02-02T13:58:43.972Z,49.13
2023-02-02T14:01:13.116Z,49.19
2023-02-02T14:03:42.080Z,49.45
2023-02-02T14:06:11.148Z,51.31
2023-02-02T14:08:38.939Z,49.43
2023-02-02T14:11:06.806Z,53.06
2023-02-02T14:13:55.361Z,51.83
2023-02-02T14:16:25.441Z,52.00
2023-02-02T14:18:54.041Z,51.20
2023-02-02T14:21:40.185Z,47.37
2023-02-02T14:24:38.815Z,50.86
2023-02-02T14:27:12.975Z,49.46
2023-02-02T14:29:57.111Z,50.67
2023-02-02T14:32:34.759Z,55.14
2023-02-02T14:35:24.789Z,58.79
2023-02-02T14:37:53.299Z,66.46
2023-02-02T14:40:26.696Z,70.69
2023-02-02T14:43:15.092Z,68.91
2023-02-02T14:45:43.036Z,63.87
2023-02-02T14:48:12.763Z,58.75
2023-02-02T14:50:43.933Z,58.85
2023-02-02T14:53:18.976Z,62.02
2023-02-02T14:55:52.023Z,62.41
2023-02-02T14:58:22.575Z,62.30
2023-02-02T15:00:54.549Z,65.42
2023-02-02T15:03:35.152Z,64.56
2023-02-02T15:06:03.918Z,65.49
2023-02-02T15:08:31.613Z,63.00
2023-02-02T15:11:25.363Z,56.22
2023-02-02T15:13:54.098Z,56.66
2023-02-02T15:16:23.530Z,58.34
2023-02-02T15:18:57.605Z,61.27
2023-02-02T15:21:25.421Z,61.07
2023-02-02T15:23:53.058Z,60.46
2023-02-02T15:26:21.323Z,61.33
2023-02-02T15:28:50.338Z,60.73
2023-02-02T15:31:20.334Z,61.08
2023-02-02T15:33:48.673Z,66.07
2023-02-02T15:36:20.123Z,56.81
2023-02-02T15:38:48.002Z,61.19
2023-02-02T15:41:17.708Z,62.72
2023-02-02T15:43:45.289Z,56.28
2023-02-02T15:46:14.748Z,59.09
2023-02-02T15:48:43.769Z,60.81
2023-02-02T15:51:15.738Z,58.29
2023-02-02T15:53:49.355Z,58.30
2023-02-02T15:56:21.326Z,57.30
2023-02-02T15:58:49.187Z,53.41
2023-02-02T16:01:18.020Z,56.64
2023-02-02T16:03:47.610Z,54.14
2023-02-02T16:06:15.528Z,54.38
2023-02-02T16:08:43.333Z,54.64
2023-02-02T16:11:13.211Z,54.66
2023-02-02T16:13:41.274Z,54.56
2023-02-02T16:16:22.665Z,53.76
2023-02-02T16:19:02.032Z,52.22
2023-02-02T16:21:29.703Z,51.50
2023-02-02T16:23:57.413Z,50.50
2023-02-02T16:26:27.326Z,54.08
2023-02-02T16:28:55.016Z,51.47
2023-02-02T16:31:22.694Z,54.20
2023-02-02T16:33:51.114Z,53.04
2023-02-02T16:36:25.085Z,52.15
2023-02-02T16:38:53.846Z,48.89
2023-02-02T16:41:29.596Z,50.40
2023-02-02T16:43:57.235Z,49.89
2023-02-02T16:46:44.151Z,51.25
2023-02-02T16:49:15.655Z,51.00
2023-02-02T16:51:43.399Z,50.64
2023-02-02T16:54:13.532Z,51.99
2023-02-02T16:56:43.108Z,50.72
2023-02-02T16:59:16.224Z,48.48
2023-02-02T17:01:44.690Z,47.64
2023-02-02T17:04:17.772Z,47.17
2023-02-02T17:06:52.450Z,46.38
2023-02-02T17:09:34.723Z,46.26
2023-02-02T17:12:09.383Z,45.74
2023-02-02T17:14:38.368Z,46.10
2023-02-02T17:17:06.601Z,45.15
2023-02-02T17:19:34.359Z,46.70
2023-02-02T17:22:05.568Z,46.95
2023-02-02T17:24:33.561Z,46.85
2023-02-02T17:27:01.261Z,46.12
2023-02-02T17:29:30.250Z,47.31
2023-02-02T17:31:57.970Z,48.50
2023-02-02T17:34:25.892Z,46.90
2023-02-02T17:36:54.175Z,50.02
2023-02-02T17:39:21.798Z,48.00
2023-02-02T17:41:50.174Z,47.20
2023-02-02T17:44:17.958Z,47.51
2023-02-02T17:46:46.933Z,45.90
2023-02-02T17:49:14.657Z,45.49
2023-02-02T17:51:43.346Z,46.10
2023-02-02T17:54:11.887Z,45.31
2023-02-02T17:56:39.599Z,45.67
2023-02-02T17:59:07.377Z,45.28
2023-02-02T18:01:37.580Z,46.03
2023-02-02T18:04:07.967Z,46.02
2023-02-02T18:06:36.261Z,46.32
2023-02-02T18:09:04.081Z,46.20
2023-02-02T18:11:31.766Z,45.51
2023-02-02T18:13:59.349Z,45.86
2023-02-02T18:16:26.987Z,46.28
2023-02-02T18:18:55.302Z,46.03
2023-02-02T18:21:26.060Z,46.37
2023-02-02T18:23:53.694Z,46.72
2023-02-02T18:26:22.608Z,47.39
2023-02-02T18:28:50.540Z,47.07
2023-02-02T18:31:19.379Z,46.87
2023-02-02T18:33:47.509Z,46.96
2023-02-02T18:36:17.626Z,47.55
2023-02-02T18:38:47.415Z,47.65
2023-02-02T18:41:15.114Z,47.83
2023-02-02T18:43:42.816Z,47.71
2023-02-02T18:46:13.490Z,48.07
2023-02-02T18:48:41.369Z,47.17
2023-02-02T18:51:09.544Z,47.22
2023-02-02T18:53:37.328Z,47.67
2023-02-02T18:56:07.532Z,47.88
2023-02-02T18:58:35.248Z,48.04
2023-02-02T19:01:08.221Z,48.01
2023-02-02T19:03:36.684Z,47.94
2023-02-02T19:06:22.365Z,47.70
2023-02-02T19:08:50.010Z,47.95
2023-02-02T19:11:20.242Z,46.99
2023-02-02T19:13:48.055Z,47.39
2023-02-02T19:16:17.871Z,48.32
2023-02-02T19:18:46.188Z,47.69
2023-02-02T19:21:14.292Z,48.00
2023-02-02T19:23:42.338Z,47.62
2023-02-02T19:26:12.769Z,48.48
2023-02-02T19:28:41.916Z,47.97
2023-02-02T19:31:09.943Z,47.85
2023-02-02T19:33:39.350Z,48.88
2023-02-02T19:36:07.377Z,48.01
2023-02-02T19:38:34.953Z,48.13
2023-02-02T19:41:03.804Z,48.01
2023-02-02T19:43:33.138Z,47.97
2023-02-02T19:46:02.225Z,48.34
2023-02-02T19:48:31.935Z,47.62
2023-02-02T19:51:00.373Z,47.95
2023-02-02T19:53:28.899Z,47.60
2023-02-02T19:55:56.587Z,47.28
2023-02-02T19:58:25.125Z,47.58
2023-02-02T20:00:53.382Z,47.97
2023-02-02T20:03:24.053Z,47.91
2023-02-02T20:05:52.354Z,47.84
2023-02-02T20:08:22.484Z,47.98
2023-02-02T20:10:50.341Z,47.85
2023-02-02T20:13:20.458Z,48.14
2023-02-02T20:15:48.592Z,48.43
2023-02-02T20:18:18.295Z,48.26
2023-02-02T20:20:47.857Z,49.13
2023-02-02T20:23:21.542Z,49.35
2023-02-02T20:25:49.312Z,48.41
2023-02-02T20:28:23.299Z,48.32
2023-02-02T20:30:51.038Z,48.14
2023-02-02T20:33:19.411Z,48.21
2023-02-02T20:35:48.518Z,48.33
2023-02-02T20:38:17.289Z,49.36
2023-02-02T20:40:44.893Z,49.94
2023-02-02T20:43:14.277Z,50.07
2023-02-02T20:45:43.505Z,50.05
2023-02-02T20:48:12.334Z,50.12
2023-02-02T20:50:40.242Z,50.23
2023-02-02T20:53:09.949Z,50.06
2023-02-02T20:55:37.598Z,49.63
2023-02-02T20:58:05.361Z,49.72
2023-02-02T21:00:33.070Z,50.19
2023-02-02T21:03:00.716Z,50.30
2023-02-02T21:05:28.455Z,50.21
2023-02-02T21:07:56.064Z,50.36
2023-02-02T21:10:25.877Z,50.45
2023-02-02T21:12:53.791Z,50.04
2023-02-02T21:15:21.521Z,50.49
2023-02-02T21:17:49.251Z,51.00
2023-02-02T21:20:17.089Z,51.13
2023-02-02T21:22:44.703Z,51.39
2023-02-02T21:25:12.627Z,51.74
2023-02-02T21:27:42.284Z,51.30
2023-02-02T21:30:10.781Z,51.86
2023-02-02T21:32:38.428Z,51.21
2023-02-02T21:35:06.388Z,51.20
2023-02-02T21:37:34.420Z,51.60
2023-02-02T21:40:02.119Z,51.98
2023-02-02T21:42:29.853Z,52.31
2023-02-02T21:44:59.310Z,52.80
2023-02-02T21:47:27.770Z,55.14
2023-02-02T21:49:56.645Z,54.12
2023-02-02T21:52:24.321Z,54.74
2023-02-02T21:54:51.947Z,54.60
2023-02-02T21:57:20.189Z,55.82
2023-02-02T21:59:48.210Z,56.20
2023-02-02T22:02:25.591Z,56.43
2023-02-02T22:04:53.346Z,57.65
2023-02-02T22:07:21.002Z,58.15
2023-02-02T22:09:49.167Z,58.09
2023-02-02T22:12:20.368Z,58.55
2023-02-02T22:14:48.505Z,57.86
2023-02-02T22:17:18.896Z,57.33
2023-02-02T22:19:47.937Z,58.08
2023-02-02T22:22:16.809Z,57.74
2023-02-02T22:24:45.307Z,58.28
2023-02-02T22:27:22.796Z,60.22
2023-02-02T22:29:50.802Z,58.63
2023-02-02T22:32:18.407Z,62.11
2023-02-02T22:34:46.063Z,61.39
2023-02-02T22:37:15.048Z,61.97
2023-02-02T22:39:43.302Z,59.62
2023-02-02T22:42:10.975Z,58.86
2023-02-02T22:44:38.627Z,59.19
2023-02-02T22:47:06.269Z,60.11
2023-02-02T22:49:33.857Z,59.08
2023-02-02T22:52:01.466Z,58.60
2023-02-02T22:54:30.956Z,59.05
2023-02-02T22:56:58.615Z,58.18
2023-02-02T22:59:26.274Z,59.53
2023-02-02T23:01:53.875Z,61.46
2023-02-02T23:04:21.564Z,60.39
2023-02-02T23:06:49.164Z,61.28
2023-02-02T23:09:17.151Z,59.32
2023-02-02T23:11:48.060Z,59.44
2023-02-02T23:14:16.796Z,60.48
2023-02-02T23:16:44.374Z,62.71
2023-02-02T23:19:12.017Z,62.00
2023-02-02T23:21:39.632Z,69.01
2023-02-02T23:24:07.588Z,69.05
2023-02-02T23:26:35.204Z,64.99
2023-02-02T23:29:04.239Z,64.17
2023-02-02T23:31:32.045Z,65.64
2023-02-02T23:34:00.147Z,65.54
2023-02-02T23:36:27.846Z,65.56
2023-02-02T23:38:55.437Z,67.21
2023-02-02T23:41:23.069Z,67.84
2023-02-02T23:43:50.664Z,79.49
2023-02-02T23:46:19.661Z,69.24
2023-02-02T23:48:47.345Z,70.06
2023-02-02T23:51:14.924Z,76.64
2023-02-02T23:53:42.597Z,77.91
2023-02-02T23:56:10.300Z,81.56
2023-02-02T23:58:37.900Z,72.93
